sensor_id;sensor_type;location;lat;lon;timestamp;P1;durP1;ratioP1;P2;durP2;ratioP2
24787;SDS011;12883;52.662;5.196;2024-03-23T00:53:24;5.33;;;5.23;;
24787;SDS011;12883;52.662;5.196;2024-03-23T00:55:50;4.73;;;4.63;;
24787;SDS011;12883;52.662;5.196;2024-03-23T00:58:16;6.70;;;6.60;;
24787;SDS011;12883;52.662;5.196;2024-03-23T01:00:41;5.97;;;5.87;;
24787;SDS011;12883;52.662;5.196;2024-03-23T01:03:07;6.57;;;6.47;;
24787;SDS011;12883;52.662;5.196;2024-03-23T01:05:32;4.77;;;4.67;;
24787;SDS011;12883;52.662;5.196;2024-03-23T01:07:57;5.83;;;5.73;;
24787;SDS011;12883;52.662;5.196;2024-03-23T01:10:23;6.07;;;5.97;;
24787;SDS011;12883;52.662;5.196;2024-03-23T01:12:48;5.07;;;4.97;;
24787;SDS011;12883;52.662;5.196;2024-03-23T01:15:13;4.80;;;4.70;;
24787;SDS011;12883;52.662;5.196;2024-03-23T01:17:38;5.47;;;5.37;;
24787;SDS011;12883;52.662;5.196;2024-03-23T01:20:04;6.37;;;6.27;;
24787;SDS011;12883;52.662;5.196;2024-03-23T01:22:31;5.47;;;5.37;;
24787;SDS011;12883;52.662;5.196;2024-03-23T01:24:56;5.40;;;5.30;;
24787;SDS011;12883;52.662;5.196;2024-03-23T01:27:22;4.73;;;4.70;;
24787;SDS011;12883;52.662;5.196;2024-03-23T01:29:48;5.10;;;5.00;;
24787;SDS011;12883;52.662;5.196;2024-03-23T01:32:13;4.87;;;4.77;;
24787;SDS011;12883;52.662;5.196;2024-03-23T01:34:38;4.83;;;4.73;;
24787;SDS011;12883;52.662;5.196;2024-03-23T01:37:04;4.57;;;4.57;;
24787;SDS011;12883;52.662;5.196;2024-03-23T01:39:29;4.17;;;4.17;;
24787;SDS011;12883;52.662;5.196;2024-03-23T01:41:55;5.13;;;5.03;;
24787;SDS011;12883;52.662;5.196;2024-03-23T01:44:20;4.47;;;4.47;;
24787;SDS011;12883;52.662;5.196;2024-03-23T01:46:45;4.30;;;4.30;;
24787;SDS011;12883;52.662;5.196;2024-03-23T01:49:11;4.60;;;4.50;;
24787;SDS011;12883;52.662;5.196;2024-03-23T01:51:37;4.43;;;4.33;;
24787;SDS011;12883;52.662;5.196;2024-03-23T01:54:03;5.30;;;5.20;;
24787;SDS011;12883;52.662;5.196;2024-03-23T01:56:32;4.53;;;4.43;;
24787;SDS011;12883;52.662;5.196;2024-03-23T01:59:01;4.00;;;4.00;;
24787;SDS011;12883;52.662;5.196;2024-03-23T02:01:27;3.97;;;3.87;;
24787;SDS011;12883;52.662;5.196;2024-03-23T02:03:52;4.10;;;4.00;;
24787;SDS011;12883;52.662;5.196;2024-03-23T02:06:17;6.23;;;6.13;;
24787;SDS011;12883;52.662;5.196;2024-03-23T02:08:43;4.03;;;3.93;;
24787;SDS011;12883;52.662;5.196;2024-03-23T02:11:09;3.43;;;3.43;;
24787;SDS011;12883;52.662;5.196;2024-03-23T02:13:34;4.30;;;4.30;;
24787;SDS011;12883;52.662;5.196;2024-03-23T02:15:59;3.97;;;3.97;;
24787;SDS011;12883;52.662;5.196;2024-03-23T02:18:25;3.60;;;3.60;;
24787;SDS011;12883;52.662;5.196;2024-03-23T02:20:50;4.30;;;4.27;;
24787;SDS011;12883;52.662;5.196;2024-03-23T02:23:16;3.37;;;3.37;;
24787;SDS011;12883;52.662;5.196;2024-03-23T02:25:43;3.73;;;3.73;;
24787;SDS011;12883;52.662;5.196;2024-03-23T02:28:08;3.57;;;3.57;;
24787;SDS011;12883;52.662;5.196;2024-03-23T02:30:34;3.63;;;3.53;;
24787;SDS011;12883;52.662;5.196;2024-03-23T02:32:59;4.50;;;4.40;;
24787;SDS011;12883;52.662;5.196;2024-03-23T02:35:25;3.67;;;3.67;;
24787;SDS011;12883;52.662;5.196;2024-03-23T02:37:50;4.20;;;4.20;;
24787;SDS011;12883;52.662;5.196;2024-03-23T02:40:16;3.27;;;3.27;;
24787;SDS011;12883;52.662;5.196;2024-03-23T02:42:42;3.77;;;3.77;;
24787;SDS011;12883;52.662;5.196;2024-03-23T02:45:07;4.20;;;4.10;;
24787;SDS011;12883;52.662;5.196;2024-03-23T02:47:33;4.03;;;4.03;;
24787;SDS011;12883;52.662;5.196;2024-03-23T02:49:58;4.20;;;4.20;;
24787;SDS011;12883;52.662;5.196;2024-03-23T02:52:24;4.67;;;4.57;;
24787;SDS011;12883;52.662;5.196;2024-03-23T02:54:49;4.67;;;4.57;;
24787;SDS011;12883;52.662;5.196;2024-03-23T02:57:14;4.27;;;4.23;;
24787;SDS011;12883;52.662;5.196;2024-03-23T02:59:40;3.77;;;3.77;;
24787;SDS011;12883;52.662;5.196;2024-03-23T03:02:06;3.33;;;3.33;;
24787;SDS011;12883;52.662;5.196;2024-03-23T03:04:31;4.33;;;4.23;;
24787;SDS011;12883;52.662;5.196;2024-03-23T03:06:57;3.73;;;3.73;;
24787;SDS011;12883;52.662;5.196;2024-03-23T03:09:22;4.60;;;4.53;;
24787;SDS011;12883;52.662;5.196;2024-03-23T03:11:48;4.83;;;4.73;;
24787;SDS011;12883;52.662;5.196;2024-03-23T03:14:13;4.17;;;4.07;;
24787;SDS011;12883;52.662;5.196;2024-03-23T03:16:38;3.57;;;3.57;;
24787;SDS011;12883;52.662;5.196;2024-03-23T03:19:03;4.30;;;4.27;;
24787;SDS011;12883;52.662;5.196;2024-03-23T03:21:29;3.40;;;3.40;;
24787;SDS011;12883;52.662;5.196;2024-03-23T03:23:54;4.67;;;4.57;;
24787;SDS011;12883;52.662;5.196;2024-03-23T03:26:21;4.13;;;4.13;;
24787;SDS011;12883;52.662;5.196;2024-03-23T03:28:47;3.13;;;3.13;;
24787;SDS011;12883;52.662;5.196;2024-03-23T03:31:17;3.60;;;3.57;;
24787;SDS011;12883;52.662;5.196;2024-03-23T03:33:43;3.13;;;3.13;;
24787;SDS011;12883;52.662;5.196;2024-03-23T03:36:09;3.70;;;3.70;;
24787;SDS011;12883;52.662;5.196;2024-03-23T03:38:35;4.03;;;3.93;;
24787;SDS011;12883;52.662;5.196;2024-03-23T03:41:03;3.47;;;3.47;;
24787;SDS011;12883;52.662;5.196;2024-03-23T03:43:31;3.77;;;3.70;;
24787;SDS011;12883;52.662;5.196;2024-03-23T03:45:56;3.87;;;3.87;;
24787;SDS011;12883;52.662;5.196;2024-03-23T03:48:22;3.30;;;3.30;;
24787;SDS011;12883;52.662;5.196;2024-03-23T03:50:48;3.30;;;3.30;;
24787;SDS011;12883;52.662;5.196;2024-03-23T03:53:14;3.30;;;3.30;;
24787;SDS011;12883;52.662;5.196;2024-03-23T03:55:39;3.80;;;3.70;;
24787;SDS011;12883;52.662;5.196;2024-03-23T03:58:05;3.33;;;3.33;;
24787;SDS011;12883;52.662;5.196;2024-03-23T04:00:30;3.20;;;3.20;;
24787;SDS011;12883;52.662;5.196;2024-03-23T04:02:56;3.70;;;3.70;;
24787;SDS011;12883;52.662;5.196;2024-03-23T04:05:22;3.43;;;3.43;;
24787;SDS011;12883;52.662;5.196;2024-03-23T04:07:47;3.50;;;3.40;;
24787;SDS011;12883;52.662;5.196;2024-03-23T04:10:12;3.70;;;3.60;;
24787;SDS011;12883;52.662;5.196;2024-03-23T04:12:38;3.80;;;3.80;;
24787;SDS011;12883;52.662;5.196;2024-03-23T04:15:03;3.97;;;3.87;;
24787;SDS011;12883;52.662;5.196;2024-03-23T04:17:30;3.40;;;3.40;;
24787;SDS011;12883;52.662;5.196;2024-03-23T04:19:57;3.43;;;3.43;;
24787;SDS011;12883;52.662;5.196;2024-03-23T04:22:23;3.13;;;3.13;;
24787;SDS011;12883;52.662;5.196;2024-03-23T04:24:57;3.53;;;3.43;;
24787;SDS011;12883;52.662;5.196;2024-03-23T04:27:23;3.67;;;3.63;;
24787;SDS011;12883;52.662;5.196;2024-03-23T04:29:51;4.20;;;4.20;;
24787;SDS011;12883;52.662;5.196;2024-03-23T04:32:18;2.97;;;2.97;;
24787;SDS011;12883;52.662;5.196;2024-03-23T04:34:43;3.50;;;3.50;;
24787;SDS011;12883;52.662;5.196;2024-03-23T04:37:09;3.67;;;3.67;;
24787;SDS011;12883;52.662;5.196;2024-03-23T04:39:38;3.50;;;3.50;;
24787;SDS011;12883;52.662;5.196;2024-03-23T04:42:03;3.63;;;3.53;;
24787;SDS011;12883;52.662;5.196;2024-03-23T04:44:29;2.97;;;2.97;;
24787;SDS011;12883;52.662;5.196;2024-03-23T04:46:55;3.43;;;3.43;;
24787;SDS011;12883;52.662;5.196;2024-03-23T04:49:21;3.20;;;3.20;;
24787;SDS011;12883;52.662;5.196;2024-03-23T04:51:47;3.23;;;3.23;;
24787;SDS011;12883;52.662;5.196;2024-03-23T04:54:12;4.43;;;4.43;;
24787;SDS011;12883;52.662;5.196;2024-03-23T04:56:37;3.37;;;3.37;;
24787;SDS011;12883;52.662;5.196;2024-03-23T04:59:03;2.90;;;2.90;;
24787;SDS011;12883;52.662;5.196;2024-03-23T05:01:30;3.53;;;3.53;;
24787;SDS011;12883;52.662;5.196;2024-03-23T05:03:58;4.07;;;4.07;;
24787;SDS011;12883;52.662;5.196;2024-03-23T05:06:24;3.43;;;3.40;;
24787;SDS011;12883;52.662;5.196;2024-03-23T05:08:50;4.17;;;4.07;;
24787;SDS011;12883;52.662;5.196;2024-03-23T05:11:19;3.33;;;3.33;;
24787;SDS011;12883;52.662;5.196;2024-03-23T05:13:45;4.27;;;4.27;;
24787;SDS011;12883;52.662;5.196;2024-03-23T05:16:11;3.67;;;3.67;;
24787;SDS011;12883;52.662;5.196;2024-03-23T05:18:36;3.67;;;3.67;;
24787;SDS011;12883;52.662;5.196;2024-03-23T05:21:01;4.80;;;4.73;;
24787;SDS011;12883;52.662;5.196;2024-03-23T05:23:30;3.30;;;3.30;;
24787;SDS011;12883;52.662;5.196;2024-03-23T05:25:55;3.60;;;3.60;;
24787;SDS011;12883;52.662;5.196;2024-03-23T05:28:21;3.93;;;3.93;;
24787;SDS011;12883;52.662;5.196;2024-03-23T05:30:53;3.50;;;3.50;;
24787;SDS011;12883;52.662;5.196;2024-03-23T05:33:19;3.83;;;3.83;;
24787;SDS011;12883;52.662;5.196;2024-03-23T05:35:45;3.47;;;3.40;;
24787;SDS011;12883;52.662;5.196;2024-03-23T05:38:11;2.97;;;2.97;;
24787;SDS011;12883;52.662;5.196;2024-03-23T05:40:36;3.57;;;3.57;;
24787;SDS011;12883;52.662;5.196;2024-03-23T05:43:05;4.03;;;4.03;;
24787;SDS011;12883;52.662;5.196;2024-03-23T05:45:30;4.10;;;4.00;;
24787;SDS011;12883;52.662;5.196;2024-03-23T05:47:56;3.77;;;3.67;;
24787;SDS011;12883;52.662;5.196;2024-03-23T05:50:22;3.83;;;3.73;;
24787;SDS011;12883;52.662;5.196;2024-03-23T05:52:47;3.57;;;3.57;;
24787;SDS011;12883;52.662;5.196;2024-03-23T05:55:13;4.27;;;4.17;;
24787;SDS011;12883;52.662;5.196;2024-03-23T05:57:39;3.37;;;3.37;;
24787;SDS011;12883;52.662;5.196;2024-03-23T06:00:04;3.53;;;3.53;;
24787;SDS011;12883;52.662;5.196;2024-03-23T06:02:35;4.57;;;4.47;;
24787;SDS011;12883;52.662;5.196;2024-03-23T06:05:00;3.57;;;3.57;;
24787;SDS011;12883;52.662;5.196;2024-03-23T06:07:27;1.60;;;1.60;;
24787;SDS011;12883;52.662;5.196;2024-03-23T06:09:52;1.97;;;1.97;;
24787;SDS011;12883;52.662;5.196;2024-03-23T06:12:18;2.03;;;2.03;;
24787;SDS011;12883;52.662;5.196;2024-03-23T06:14:43;2.07;;;2.07;;
24787;SDS011;12883;52.662;5.196;2024-03-23T06:17:08;1.90;;;1.90;;
24787;SDS011;12883;52.662;5.196;2024-03-23T06:19:34;2.00;;;2.00;;
24787;SDS011;12883;52.662;5.196;2024-03-23T06:21:59;2.17;;;2.17;;
24787;SDS011;12883;52.662;5.196;2024-03-23T06:24:25;1.90;;;1.90;;
24787;SDS011;12883;52.662;5.196;2024-03-23T06:26:50;1.83;;;1.83;;
24787;SDS011;12883;52.662;5.196;2024-03-23T06:29:15;2.00;;;2.00;;
24787;SDS011;12883;52.662;5.196;2024-03-23T06:31:41;2.00;;;2.00;;
24787;SDS011;12883;52.662;5.196;2024-03-23T06:34:06;2.00;;;2.00;;
24787;SDS011;12883;52.662;5.196;2024-03-23T06:36:31;2.20;;;2.20;;
24787;SDS011;12883;52.662;5.196;2024-03-23T06:38:57;2.57;;;2.57;;
24787;SDS011;12883;52.662;5.196;2024-03-23T06:41:23;2.87;;;2.87;;
24787;SDS011;12883;52.662;5.196;2024-03-23T06:43:48;2.80;;;2.80;;
24787;SDS011;12883;52.662;5.196;2024-03-23T06:46:13;3.00;;;3.00;;
24787;SDS011;12883;52.662;5.196;2024-03-23T06:48:39;2.53;;;2.53;;
24787;SDS011;12883;52.662;5.196;2024-03-23T06:51:04;2.53;;;2.53;;
24787;SDS011;12883;52.662;5.196;2024-03-23T06:53:29;2.43;;;2.43;;
24787;SDS011;12883;52.662;5.196;2024-03-23T06:55:54;2.90;;;2.90;;
24787;SDS011;12883;52.662;5.196;2024-03-23T06:58:20;3.27;;;3.27;;
24787;SDS011;12883;52.662;5.196;2024-03-23T07:00:47;3.27;;;3.17;;
24787;SDS011;12883;52.662;5.196;2024-03-23T07:03:13;2.90;;;2.90;;
24787;SDS011;12883;52.662;5.196;2024-03-23T07:05:39;3.57;;;3.57;;
24787;SDS011;12883;52.662;5.196;2024-03-23T07:08:05;5.00;;;4.90;;
24787;SDS011;12883;52.662;5.196;2024-03-23T07:10:30;3.97;;;3.97;;
24787;SDS011;12883;52.662;5.196;2024-03-23T07:12:55;2.13;;;2.13;;
24787;SDS011;12883;52.662;5.196;2024-03-23T07:15:21;1.97;;;1.97;;
24787;SDS011;12883;52.662;5.196;2024-03-23T07:17:47;2.00;;;2.00;;
24787;SDS011;12883;52.662;5.196;2024-03-23T07:20:12;2.80;;;2.80;;
24787;SDS011;12883;52.662;5.196;2024-03-23T07:22:38;2.77;;;2.77;;
24787;SDS011;12883;52.662;5.196;2024-03-23T07:25:04;1.97;;;1.97;;
24787;SDS011;12883;52.662;5.196;2024-03-23T07:27:31;2.83;;;2.83;;
24787;SDS011;12883;52.662;5.196;2024-03-23T07:29:56;3.40;;;3.40;;
24787;SDS011;12883;52.662;5.196;2024-03-23T07:32:22;2.47;;;2.47;;
24787;SDS011;12883;52.662;5.196;2024-03-23T07:34:47;3.03;;;3.03;;
24787;SDS011;12883;52.662;5.196;2024-03-23T07:37:13;3.13;;;3.13;;
24787;SDS011;12883;52.662;5.196;2024-03-23T07:39:41;3.00;;;3.00;;
24787;SDS011;12883;52.662;5.196;2024-03-23T07:42:06;3.70;;;3.70;;
24787;SDS011;12883;52.662;5.196;2024-03-23T07:44:32;3.10;;;3.10;;
24787;SDS011;12883;52.662;5.196;2024-03-23T07:46:58;3.07;;;3.07;;
24787;SDS011;12883;52.662;5.196;2024-03-23T07:49:25;3.30;;;3.30;;
24787;SDS011;12883;52.662;5.196;2024-03-23T07:51:50;3.87;;;3.87;;
24787;SDS011;12883;52.662;5.196;2024-03-23T07:54:16;3.90;;;3.90;;
24787;SDS011;12883;52.662;5.196;2024-03-23T07:56:41;4.77;;;4.67;;
24787;SDS011;12883;52.662;5.196;2024-03-23T07:59:06;3.50;;;3.50;;
24787;SDS011;12883;52.662;5.196;2024-03-23T08:01:32;3.37;;;3.37;;
24787;SDS011;12883;52.662;5.196;2024-03-23T08:03:57;3.77;;;3.77;;
24787;SDS011;12883;52.662;5.196;2024-03-23T08:06:22;3.13;;;3.13;;
24787;SDS011;12883;52.662;5.196;2024-03-23T08:08:49;4.20;;;4.20;;
24787;SDS011;12883;52.662;5.196;2024-03-23T08:11:24;3.13;;;3.13;;
24787;SDS011;12883;52.662;5.196;2024-03-23T08:13:56;2.87;;;2.87;;
24787;SDS011;12883;52.662;5.196;2024-03-23T08:16:23;3.60;;;3.60;;
24787;SDS011;12883;52.662;5.196;2024-03-23T08:18:48;3.50;;;3.50;;
24787;SDS011;12883;52.662;5.196;2024-03-23T08:21:16;3.23;;;3.23;;
24787;SDS011;12883;52.662;5.196;2024-03-23T08:23:41;3.20;;;3.20;;
24787;SDS011;12883;52.662;5.196;2024-03-23T08:26:07;3.03;;;3.03;;
24787;SDS011;12883;52.662;5.196;2024-03-23T08:28:34;3.50;;;3.50;;
24787;SDS011;12883;52.662;5.196;2024-03-23T08:31:01;3.47;;;3.47;;
24787;SDS011;12883;52.662;5.196;2024-03-23T08:33:30;4.10;;;4.00;;
24787;SDS011;12883;52.662;5.196;2024-03-23T08:36:03;3.87;;;3.87;;
24787;SDS011;12883;52.662;5.196;2024-03-23T08:38:30;3.37;;;3.37;;
24787;SDS011;12883;52.662;5.196;2024-03-23T08:40:58;3.93;;;3.93;;
24787;SDS011;12883;52.662;5.196;2024-03-23T08:43:25;3.47;;;3.47;;
24787;SDS011;12883;52.662;5.196;2024-03-23T08:45:51;3.57;;;3.57;;
24787;SDS011;12883;52.662;5.196;2024-03-23T08:48:18;3.57;;;3.57;;
24787;SDS011;12883;52.662;5.196;2024-03-23T08:50:45;3.20;;;3.20;;
24787;SDS011;12883;52.662;5.196;2024-03-23T08:53:11;3.10;;;3.10;;
24787;SDS011;12883;52.662;5.196;2024-03-23T08:55:36;3.47;;;3.47;;
24787;SDS011;12883;52.662;5.196;2024-03-23T08:58:01;3.93;;;3.83;;
24787;SDS011;12883;52.662;5.196;2024-03-23T09:00:27;4.13;;;4.13;;
24787;SDS011;12883;52.662;5.196;2024-03-23T09:02:52;3.17;;;3.17;;
24787;SDS011;12883;52.662;5.196;2024-03-23T09:05:18;3.23;;;3.23;;
24787;SDS011;12883;52.662;5.196;2024-03-23T09:07:44;3.47;;;3.47;;
24787;SDS011;12883;52.662;5.196;2024-03-23T09:10:09;3.50;;;3.40;;
24787;SDS011;12883;52.662;5.196;2024-03-23T09:12:34;3.17;;;3.17;;
24787;SDS011;12883;52.662;5.196;2024-03-23T09:15:00;3.10;;;3.10;;
24787;SDS011;12883;52.662;5.196;2024-03-23T09:17:25;3.57;;;3.47;;
24787;SDS011;12883;52.662;5.196;2024-03-23T09:19:50;3.47;;;3.47;;
24787;SDS011;12883;52.662;5.196;2024-03-23T09:22:15;3.43;;;3.43;;
24787;SDS011;12883;52.662;5.196;2024-03-23T09:24:41;3.30;;;3.30;;
24787;SDS011;12883;52.662;5.196;2024-03-23T09:27:06;3.23;;;3.23;;
24787;SDS011;12883;52.662;5.196;2024-03-23T09:29:31;2.73;;;2.73;;
24787;SDS011;12883;52.662;5.196;2024-03-23T09:31:57;3.23;;;3.23;;
24787;SDS011;12883;52.662;5.196;2024-03-23T09:34:22;3.13;;;3.13;;
24787;SDS011;12883;52.662;5.196;2024-03-23T09:36:50;3.87;;;3.87;;
24787;SDS011;12883;52.662;5.196;2024-03-23T09:39:17;3.17;;;3.17;;
24787;SDS011;12883;52.662;5.196;2024-03-23T09:41:42;3.70;;;3.70;;
24787;SDS011;12883;52.662;5.196;2024-03-23T09:44:08;4.53;;;4.53;;
24787;SDS011;12883;52.662;5.196;2024-03-23T09:46:34;3.70;;;3.67;;
24787;SDS011;12883;52.662;5.196;2024-03-23T09:49:01;3.70;;;3.60;;
24787;SDS011;12883;52.662;5.196;2024-03-23T09:51:29;3.23;;;3.23;;
24787;SDS011;12883;52.662;5.196;2024-03-23T09:53:55;3.40;;;3.40;;
24787;SDS011;12883;52.662;5.196;2024-03-23T09:56:21;3.83;;;3.80;;
24787;SDS011;12883;52.662;5.196;2024-03-23T09:58:46;3.53;;;3.53;;
24787;SDS011;12883;52.662;5.196;2024-03-23T10:01:11;3.70;;;3.70;;
24787;SDS011;12883;52.662;5.196;2024-03-23T10:03:46;3.70;;;3.70;;
24787;SDS011;12883;52.662;5.196;2024-03-23T10:06:11;3.87;;;3.87;;
24787;SDS011;12883;52.662;5.196;2024-03-23T10:08:37;3.23;;;3.23;;
24787;SDS011;12883;52.662;5.196;2024-03-23T10:11:15;3.83;;;3.83;;
24787;SDS011;12883;52.662;5.196;2024-03-23T10:13:44;4.07;;;4.07;;
24787;SDS011;12883;52.662;5.196;2024-03-23T10:16:11;3.80;;;3.80;;
24787;SDS011;12883;52.662;5.196;2024-03-23T10:18:37;3.60;;;3.60;;
24787;SDS011;12883;52.662;5.196;2024-03-23T10:21:07;3.87;;;3.87;;
24787;SDS011;12883;52.662;5.196;2024-03-23T10:23:37;3.23;;;3.23;;
24787;SDS011;12883;52.662;5.196;2024-03-23T10:31:20;3.00;;;3.00;;
24787;SDS011;12883;52.662;5.196;2024-03-23T10:33:46;4.10;;;4.10;;
24787;SDS011;12883;52.662;5.196;2024-03-23T10:36:12;4.80;;;4.77;;
24787;SDS011;12883;52.662;5.196;2024-03-23T10:38:42;3.63;;;3.63;;
24787;SDS011;12883;52.662;5.196;2024-03-23T10:41:08;2.83;;;2.83;;
24787;SDS011;12883;52.662;5.196;2024-03-23T10:43:35;3.00;;;3.00;;
24787;SDS011;12883;52.662;5.196;2024-03-23T10:46:01;3.13;;;3.13;;
24787;SDS011;12883;52.662;5.196;2024-03-23T10:48:27;2.40;;;2.40;;
24787;SDS011;12883;52.662;5.196;2024-03-23T10:50:52;2.17;;;2.17;;
24787;SDS011;12883;52.662;5.196;2024-03-23T10:53:18;2.70;;;2.70;;
24787;SDS011;12883;52.662;5.196;2024-03-23T10:55:47;2.87;;;2.83;;
24787;SDS011;12883;52.662;5.196;2024-03-23T10:58:14;2.93;;;2.93;;
24787;SDS011;12883;52.662;5.196;2024-03-23T11:00:40;3.23;;;3.23;;
24787;SDS011;12883;52.662;5.196;2024-03-23T11:06:02;3.50;;;3.50;;
24787;SDS011;12883;52.662;5.196;2024-03-23T11:08:38;2.70;;;2.70;;
24787;SDS011;12883;52.662;5.196;2024-03-23T11:13:49;3.70;;;3.70;;
24787;SDS011;12883;52.662;5.196;2024-03-23T11:16:22;3.33;;;3.33;;
24787;SDS011;12883;52.662;5.196;2024-03-23T11:22:01;3.40;;;3.40;;
24787;SDS011;12883;52.662;5.196;2024-03-23T11:24:27;3.43;;;3.43;;
24787;SDS011;12883;52.662;5.196;2024-03-23T11:26:52;3.33;;;3.33;;
24787;SDS011;12883;52.662;5.196;2024-03-23T11:29:17;3.57;;;3.57;;
24787;SDS011;12883;52.662;5.196;2024-03-23T11:34:12;3.27;;;3.27;;
24787;SDS011;12883;52.662;5.196;2024-03-23T11:36:38;3.30;;;3.30;;
24787;SDS011;12883;52.662;5.196;2024-03-23T11:39:15;1.60;;;1.60;;
24787;SDS011;12883;52.662;5.196;2024-03-23T11:42:03;1.30;;;1.30;;
24787;SDS011;12883;52.662;5.196;2024-03-23T11:44:28;1.83;;;1.83;;
24787;SDS011;12883;52.662;5.196;2024-03-23T11:46:53;1.83;;;1.83;;
24787;SDS011;12883;52.662;5.196;2024-03-23T11:49:32;2.53;;;2.53;;
24787;SDS011;12883;52.662;5.196;2024-03-23T11:51:57;3.50;;;3.50;;
24787;SDS011;12883;52.662;5.196;2024-03-23T11:54:23;3.80;;;3.80;;
24787;SDS011;12883;52.662;5.196;2024-03-23T12:02:09;2.87;;;2.87;;
24787;SDS011;12883;52.662;5.196;2024-03-23T12:04:36;3.50;;;3.50;;
24787;SDS011;12883;52.662;5.196;2024-03-23T12:07:11;3.00;;;3.00;;
24787;SDS011;12883;52.662;5.196;2024-03-23T12:10:13;3.63;;;3.63;;
24787;SDS011;12883;52.662;5.196;2024-03-23T12:12:37;3.30;;;3.30;;
24787;SDS011;12883;52.662;5.196;2024-03-23T12:17:30;3.50;;;3.50;;
24787;SDS011;12883;52.662;5.196;2024-03-23T12:19:55;3.40;;;3.40;;
24787;SDS011;12883;52.662;5.196;2024-03-23T12:22:21;3.50;;;3.50;;
24787;SDS011;12883;52.662;5.196;2024-03-23T12:24:47;2.90;;;2.90;;
24787;SDS011;12883;52.662;5.196;2024-03-23T12:27:13;2.93;;;2.93;;
24787;SDS011;12883;52.662;5.196;2024-03-23T12:29:39;3.47;;;3.47;;
24787;SDS011;12883;52.662;5.196;2024-03-23T12:32:06;3.70;;;3.70;;
24787;SDS011;12883;52.662;5.196;2024-03-23T12:34:32;3.33;;;3.33;;
24787;SDS011;12883;52.662;5.196;2024-03-23T12:36:57;3.53;;;3.53;;
24787;SDS011;12883;52.662;5.196;2024-03-23T12:39:22;3.80;;;3.80;;
24787;SDS011;12883;52.662;5.196;2024-03-23T12:41:48;3.70;;;3.70;;
24787;SDS011;12883;52.662;5.196;2024-03-23T12:44:14;3.57;;;3.57;;
24787;SDS011;12883;52.662;5.196;2024-03-23T12:46:40;3.63;;;3.63;;
24787;SDS011;12883;52.662;5.196;2024-03-23T12:49:06;3.30;;;3.30;;
24787;SDS011;12883;52.662;5.196;2024-03-23T12:51:32;3.90;;;3.90;;
24787;SDS011;12883;52.662;5.196;2024-03-23T12:53:57;4.00;;;4.00;;
24787;SDS011;12883;52.662;5.196;2024-03-23T12:56:23;2.97;;;2.97;;
24787;SDS011;12883;52.662;5.196;2024-03-23T12:58:48;2.93;;;2.93;;
24787;SDS011;12883;52.662;5.196;2024-03-23T13:01:19;3.13;;;3.13;;
24787;SDS011;12883;52.662;5.196;2024-03-23T13:03:47;3.33;;;3.33;;
24787;SDS011;12883;52.662;5.196;2024-03-23T13:06:13;2.50;;;2.50;;
24787;SDS011;12883;52.662;5.196;2024-03-23T13:08:39;2.67;;;2.67;;
24787;SDS011;12883;52.662;5.196;2024-03-23T13:11:08;3.13;;;3.13;;
24787;SDS011;12883;52.662;5.196;2024-03-23T13:13:35;3.07;;;3.07;;
24787;SDS011;12883;52.662;5.196;2024-03-23T13:16:00;3.00;;;3.00;;
24787;SDS011;12883;52.662;5.196;2024-03-23T13:18:27;3.13;;;3.13;;
24787;SDS011;12883;52.662;5.196;2024-03-23T13:20:53;3.17;;;3.17;;
24787;SDS011;12883;52.662;5.196;2024-03-23T13:23:18;3.50;;;3.50;;
24787;SDS011;12883;52.662;5.196;2024-03-23T13:25:50;4.20;;;4.20;;
24787;SDS011;12883;52.662;5.196;2024-03-23T13:28:17;4.23;;;4.23;;
24787;SDS011;12883;52.662;5.196;2024-03-23T13:30:50;3.27;;;3.27;;
24787;SDS011;12883;52.662;5.196;2024-03-23T13:33:16;4.17;;;4.17;;
24787;SDS011;12883;52.662;5.196;2024-03-23T13:35:48;3.27;;;3.27;;
24787;SDS011;12883;52.662;5.196;2024-03-23T13:38:17;3.33;;;3.33;;
24787;SDS011;12883;52.662;5.196;2024-03-23T13:43:38;3.67;;;3.67;;
24787;SDS011;12883;52.662;5.196;2024-03-23T13:46:03;2.40;;;2.40;;
24787;SDS011;12883;52.662;5.196;2024-03-23T13:48:28;2.93;;;2.93;;
24787;SDS011;12883;52.662;5.196;2024-03-23T13:51:00;2.47;;;2.47;;
24787;SDS011;12883;52.662;5.196;2024-03-23T13:53:26;2.23;;;2.23;;
24787;SDS011;12883;52.662;5.196;2024-03-23T13:55:52;2.13;;;2.13;;
24787;SDS011;12883;52.662;5.196;2024-03-23T13:58:18;2.03;;;2.03;;
24787;SDS011;12883;52.662;5.196;2024-03-23T14:00:43;2.83;;;2.83;;
24787;SDS011;12883;52.662;5.196;2024-03-23T14:03:09;2.60;;;2.60;;
24787;SDS011;12883;52.662;5.196;2024-03-23T14:05:35;2.63;;;2.63;;
24787;SDS011;12883;52.662;5.196;2024-03-23T14:08:00;2.80;;;2.80;;
24787;SDS011;12883;52.662;5.196;2024-03-23T14:10:26;3.27;;;3.27;;
24787;SDS011;12883;52.662;5.196;2024-03-23T14:12:52;2.90;;;2.90;;
24787;SDS011;12883;52.662;5.196;2024-03-23T14:15:17;2.73;;;2.73;;
24787;SDS011;12883;52.662;5.196;2024-03-23T14:17:43;3.30;;;3.30;;
24787;SDS011;12883;52.662;5.196;2024-03-23T14:20:08;2.87;;;2.87;;
24787;SDS011;12883;52.662;5.196;2024-03-23T14:22:36;3.20;;;3.20;;
24787;SDS011;12883;52.662;5.196;2024-03-23T14:25:02;3.73;;;3.73;;
24787;SDS011;12883;52.662;5.196;2024-03-23T14:27:27;3.00;;;3.00;;
24787;SDS011;12883;52.662;5.196;2024-03-23T14:29:52;3.37;;;3.37;;
24787;SDS011;12883;52.662;5.196;2024-03-23T14:32:18;2.93;;;2.93;;
24787;SDS011;12883;52.662;5.196;2024-03-23T14:34:43;2.50;;;2.50;;
24787;SDS011;12883;52.662;5.196;2024-03-23T14:37:08;2.77;;;2.77;;
24787;SDS011;12883;52.662;5.196;2024-03-23T14:39:34;3.33;;;3.33;;
24787;SDS011;12883;52.662;5.196;2024-03-23T14:42:04;2.63;;;2.63;;
24787;SDS011;12883;52.662;5.196;2024-03-23T14:44:31;3.63;;;3.63;;
24787;SDS011;12883;52.662;5.196;2024-03-23T14:46:57;3.10;;;3.10;;
24787;SDS011;12883;52.662;5.196;2024-03-23T14:49:22;2.90;;;2.90;;
24787;SDS011;12883;52.662;5.196;2024-03-23T14:51:47;2.37;;;2.37;;
24787;SDS011;12883;52.662;5.196;2024-03-23T14:54:13;2.67;;;2.67;;
24787;SDS011;12883;52.662;5.196;2024-03-23T14:56:39;2.97;;;2.97;;
24787;SDS011;12883;52.662;5.196;2024-03-23T14:59:04;2.40;;;2.40;;
24787;SDS011;12883;52.662;5.196;2024-03-23T15:01:31;2.00;;;2.00;;
24787;SDS011;12883;52.662;5.196;2024-03-23T15:03:56;2.13;;;2.13;;
24787;SDS011;12883;52.662;5.196;2024-03-23T15:06:21;2.90;;;2.90;;
24787;SDS011;12883;52.662;5.196;2024-03-23T15:08:47;2.97;;;2.97;;
24787;SDS011;12883;52.662;5.196;2024-03-23T15:11:12;2.50;;;2.50;;
24787;SDS011;12883;52.662;5.196;2024-03-23T15:13:37;2.57;;;2.57;;
24787;SDS011;12883;52.662;5.196;2024-03-23T15:16:04;2.10;;;2.10;;
24787;SDS011;12883;52.662;5.196;2024-03-23T15:18:30;2.13;;;2.13;;
24787;SDS011;12883;52.662;5.196;2024-03-23T15:20:56;3.10;;;3.10;;
24787;SDS011;12883;52.662;5.196;2024-03-23T15:23:26;2.10;;;2.10;;
24787;SDS011;12883;52.662;5.196;2024-03-23T15:25:58;2.33;;;2.33;;
24787;SDS011;12883;52.662;5.196;2024-03-23T15:28:25;3.33;;;3.33;;
24787;SDS011;12883;52.662;5.196;2024-03-23T15:31:06;3.30;;;3.30;;
24787;SDS011;12883;52.662;5.196;2024-03-23T15:33:33;3.17;;;3.17;;
24787;SDS011;12883;52.662;5.196;2024-03-23T15:36:02;4.03;;;4.03;;
24787;SDS011;12883;52.662;5.196;2024-03-23T15:38:28;3.20;;;3.20;;
24787;SDS011;12883;52.662;5.196;2024-03-23T15:40:56;2.40;;;2.40;;
24787;SDS011;12883;52.662;5.196;2024-03-23T15:43:22;2.70;;;2.70;;
24787;SDS011;12883;52.662;5.196;2024-03-23T15:45:57;2.53;;;2.53;;
24787;SDS011;12883;52.662;5.196;2024-03-23T15:48:29;2.40;;;2.40;;
24787;SDS011;12883;52.662;5.196;2024-03-23T15:50:56;1.80;;;1.80;;
24787;SDS011;12883;52.662;5.196;2024-03-23T15:53:23;1.90;;;1.90;;
24787;SDS011;12883;52.662;5.196;2024-03-23T15:56:08;1.60;;;1.60;;
24787;SDS011;12883;52.662;5.196;2024-03-23T15:58:33;1.70;;;1.70;;
24787;SDS011;12883;52.662;5.196;2024-03-23T16:01:03;1.50;;;1.50;;
24787;SDS011;12883;52.662;5.196;2024-03-23T16:03:35;2.13;;;2.13;;